Aledo, Texas
Current Conditions -  °F | °C
As of 2:52 PM on Friday 31 Oct 2014 (Local Time) from KNFW Reporting Station
Clear Clear  
Wind Chill: 66°   Ceiling: Unl
Heat Index: 66°   Visibility: 10mi
Dew Point: 44°   Wind: 13mph
Humidity: 45%   Direction: 360°N
Pressure: 30.34"   Gusts: 23mph
Location:  32.7°N, 97.6°W
Report Text: KNFW 311952Z 36011G20KT 10SM CLR 19/07 A3034 RMK AO2 SLP257 T01890067 VISNO N $
Loading
Personal Weather Stations






























Interactive Weather Map
Tropical Storm Tracking
New forecast layout! Learn more

10-Day Weather Forecast

Advertisements
Track Severe Weather on mobile